Terminal Aerodrome Forecast
Issued by NWS

Home | Current Version | Previous Version | Text Only | Print | Product List | Glossary On
Versions: 1 2 3 4 5 6 7 8 9 10 11 12 13
000
FTUS43 KICT 302330
TAFSLN
TAF
KSLN 302330Z 3100/3124 36014KT P6SM SKC
     FM310800 01015G21KT P6SM SCT025
     FM311600 04014G20KT P6SM SKC=

USA.gov is the U.S. government's official web portal to all federal, state and local government web resources and services.